Etusivu
METAR-TAF:

METAR-TAF

Lentoasemat :

Pau, Ranska

Leveyspiiri: 43-23N, Pituuspiiri: 000-25W, korkeus merenpinnasta: 188 m

Tämänhetkinen sää

Tämä raportti tehtiin 25 minuuttia sitten, kello 15.30 UTC
Tuuli 3 kn eri suunnista
Lämpötila 16°C
Kosteus 36%
Ilmanpaine 1027 hPa
Näkyvyys 10 km tai enemmän
ei pilviä alle 1500 m:ssä eikä cumulonimbus-pilviä

METAR: LFBP 211530Z AUTO VRB03KT CAVOK 16/01 Q1027 NOSIG

Aika: 16:55 (15:55 UTC)

Sääennuste

Tämä raportti tehtiin 4 tuntia ja 55 minuuttia sitten, kello 11.00 UTC
Ennuste voimassa 21. päivästä klo 12 UTC - 22. päivään klo 12 UTC
Tuuli 3 kn eri suunnista
Näkyvyys 10 km tai enemmän
ei pilviä alle 1500 m:ssä eikä cumulonimbus-pilviä
Ajoittain
21. päivästä klo 12 UTC - 21. päivään klo 18 UTC
Tuuli 5 kn pohjoisesta

TAF: LFBP 211100Z 2112/2212 VRB03KT CAVOK TEMPO 2112/2118 35005KT

Säähavainnot ja -ennusteet yli 4000 lentoasemalta (METAR- ja TAF-raportit).

Käytössä olevat sääasemat on merkitty karttaan keltaisilla ja punaisilla pisteillä.

Aseta hiiri pisteen päälle nähdäksesi sääaseman nimen.

Klikkaa sitten nähdäksesi säähavainnot ja -ennusteet.

Kartan vaihtaminen: klikkaa mustalla rastilla varustettuja vihreitä pisteitä, niin voit zoomata sisään; viivalla varustettua vihreää pistettä, niin voit zoomata ulos tai vihreitä nuolia, niin pääset viereisille kartoille.


METAR-TAF: